createdAt,value
2017-09-24T00:01:53.164Z,25.70
2017-09-24T00:04:20.743Z,26.30
2017-09-24T00:06:48.343Z,25.20
2017-09-24T00:09:16.679Z,25.90
2017-09-24T00:11:44.319Z,31.53
2017-09-24T00:14:11.922Z,31.67
2017-09-24T00:16:39.498Z,27.17
2017-09-24T00:19:07.114Z,30.60
2017-09-24T00:21:34.866Z,33.67
2017-09-24T00:24:02.446Z,27.40
2017-09-24T00:26:30.017Z,26.60
2017-09-24T00:28:57.670Z,29.87
2017-09-24T00:31:25.299Z,33.00
2017-09-24T00:33:53.678Z,27.07
2017-09-24T00:36:22.016Z,29.00
2017-09-24T00:38:49.606Z,32.53
2017-09-24T00:41:17.179Z,25.87
2017-09-24T00:43:44.814Z,29.40
2017-09-24T00:46:12.391Z,24.50
2017-09-24T00:48:40.009Z,27.90
2017-09-24T00:51:07.720Z,28.27
2017-09-24T00:53:35.971Z,29.43
2017-09-24T00:56:03.557Z,32.83
2017-09-24T00:58:31.153Z,28.47
2017-09-24T01:00:59.611Z,28.63
2017-09-24T01:03:27.274Z,23.87
2017-09-24T01:05:54.879Z,31.37
2017-09-24T01:08:23.219Z,24.10
2017-09-24T01:10:50.783Z,28.07
2017-09-24T01:13:18.437Z,26.10
2017-09-24T01:15:46.001Z,24.20
2017-09-24T01:18:13.599Z,25.30
2017-09-24T01:20:41.201Z,27.53
2017-09-24T01:23:08.863Z,33.77
2017-09-24T01:25:36.421Z,30.47
2017-09-24T01:28:04.787Z,29.13
2017-09-24T01:30:33.150Z,26.27
2017-09-24T01:33:00.793Z,28.50
2017-09-24T01:35:28.445Z,30.23
2017-09-24T01:37:56.856Z,28.87
2017-09-24T01:40:24.459Z,29.97
2017-09-24T01:42:52.780Z,32.53
2017-09-24T01:45:20.417Z,28.47
2017-09-24T01:47:48.045Z,34.60
2017-09-24T01:50:15.659Z,34.57
2017-09-24T01:52:43.249Z,27.23
2017-09-24T01:55:10.899Z,27.23
2017-09-24T01:57:38.468Z,24.17
2017-09-24T02:00:06.132Z,25.40
2017-09-24T02:02:33.741Z,28.27
2017-09-24T02:05:01.337Z,29.53
2017-09-24T02:07:29.026Z,24.27
2017-09-24T02:09:56.733Z,34.47
2017-09-24T02:12:24.364Z,39.23
2017-09-24T02:14:52.109Z,32.17
2017-09-24T02:17:19.684Z,36.50
2017-09-24T02:19:47.298Z,27.50
2017-09-24T02:22:14.852Z,36.90
2017-09-24T02:24:42.457Z,36.60
2017-09-24T02:27:10.019Z,32.93
2017-09-24T02:29:38.376Z,30.13
2017-09-24T02:32:05.951Z,30.20
2017-09-24T02:34:34.000Z,35.83
2017-09-24T02:37:01.608Z,29.57
2017-09-24T02:39:30.034Z,28.23
2017-09-24T02:41:57.608Z,27.63
2017-09-24T02:44:25.228Z,33.87
2017-09-24T02:46:52.818Z,31.37
2017-09-24T02:49:20.394Z,29.97
2017-09-24T02:51:47.987Z,29.50
2017-09-24T02:54:15.588Z,31.87
2017-09-24T02:56:43.184Z,28.77
2017-09-24T02:59:10.759Z,25.27
2017-09-24T03:01:38.355Z,29.93
2017-09-24T03:04:06.706Z,26.90
2017-09-24T03:06:34.376Z,28.17
2017-09-24T03:09:02.133Z,34.03
2017-09-24T03:11:29.689Z,30.50
2017-09-24T03:13:57.265Z,29.33
2017-09-24T03:16:24.838Z,32.00
2017-09-24T03:18:52.440Z,28.33
2017-09-24T03:21:20.008Z,28.57
2017-09-24T03:23:47.628Z,23.20
2017-09-24T03:26:16.344Z,26.07
2017-09-24T03:28:44.761Z,26.40
2017-09-24T03:31:12.331Z,28.23
2017-09-24T03:33:39.903Z,24.43
2017-09-24T03:36:07.499Z,28.00
2017-09-24T03:38:35.146Z,26.37
2017-09-24T03:41:02.746Z,28.57
2017-09-24T03:43:31.086Z,32.27
2017-09-24T03:45:58.655Z,26.97
2017-09-24T03:48:26.303Z,27.67
2017-09-24T03:50:53.970Z,28.83
2017-09-24T03:53:21.569Z,23.77
2017-09-24T03:55:49.146Z,26.93
2017-09-24T03:58:16.728Z,23.17
2017-09-24T04:00:45.553Z,26.07
2017-09-24T04:03:13.145Z,26.20
2017-09-24T04:05:40.721Z,26.40
2017-09-24T04:08:08.333Z,26.40
2017-09-24T04:10:35.972Z,26.13
2017-09-24T04:13:03.559Z,27.93
2017-09-24T04:15:31.137Z,25.57
2017-09-24T04:17:58.772Z,32.47
2017-09-24T04:20:27.138Z,22.70
2017-09-24T04:22:54.841Z,25.57
2017-09-24T04:25:22.429Z,27.70
2017-09-24T04:27:50.104Z,26.33
2017-09-24T04:30:17.979Z,32.73
2017-09-24T04:32:45.595Z,27.70
2017-09-24T04:35:13.165Z,28.77
2017-09-24T04:37:40.754Z,26.77
2017-09-24T04:40:08.412Z,26.40
2017-09-24T04:42:35.992Z,27.77
2017-09-24T04:45:03.597Z,27.30
2017-09-24T04:47:31.953Z,26.53
2017-09-24T04:49:59.666Z,26.00
2017-09-24T04:52:27.242Z,22.37
2017-09-24T04:54:54.858Z,27.47
2017-09-24T04:57:22.445Z,23.23
2017-09-24T04:59:50.779Z,27.27
2017-09-24T05:02:18.513Z,21.87
2017-09-24T05:04:46.112Z,27.73
2017-09-24T05:07:13.713Z,30.67
2017-09-24T05:09:42.087Z,29.20
2017-09-24T05:12:10.447Z,25.90
2017-09-24T05:14:38.005Z,23.73
2017-09-24T05:17:05.620Z,19.70
2017-09-24T05:19:33.272Z,28.23
2017-09-24T05:22:00.861Z,27.50
2017-09-24T05:24:29.419Z,31.77
2017-09-24T05:26:56.996Z,28.83
2017-09-24T05:29:25.344Z,31.40
2017-09-24T05:31:52.933Z,31.63
2017-09-24T05:34:20.564Z,27.77
2017-09-24T05:36:48.140Z,29.17
2017-09-24T05:39:15.732Z,33.27
2017-09-24T05:41:44.098Z,33.70
2017-09-24T05:44:11.829Z,29.27
2017-09-24T05:46:39.390Z,29.00
2017-09-24T05:49:07.005Z,28.30
2017-09-24T05:51:34.576Z,26.40
2017-09-24T05:54:03.017Z,28.87
2017-09-24T05:56:30.585Z,26.33
2017-09-24T05:58:58.189Z,28.27
2017-09-24T06:01:26.530Z,32.33
2017-09-24T06:03:54.154Z,26.27
2017-09-24T06:06:21.740Z,26.70
2017-09-24T06:08:49.296Z,28.13
2017-09-24T06:11:16.895Z,28.20
2017-09-24T06:13:44.479Z,28.10
2017-09-24T06:16:12.120Z,28.90
2017-09-24T06:18:39.709Z,26.30
2017-09-24T06:21:08.081Z,33.67
2017-09-24T06:23:35.717Z,29.30
2017-09-24T06:26:03.475Z,28.47
2017-09-24T06:28:31.106Z,30.47
2017-09-24T06:30:59.450Z,29.60
2017-09-24T06:33:27.009Z,27.77
2017-09-24T06:35:54.598Z,42.13
2017-09-24T06:38:22.974Z,28.37
2017-09-24T06:40:50.597Z,39.53
2017-09-24T06:43:18.183Z,35.03
2017-09-24T06:45:45.774Z,32.93
2017-09-24T06:48:13.395Z,30.90
2017-09-24T06:50:40.979Z,37.23
2017-09-24T06:53:08.622Z,30.50
2017-09-24T06:55:37.901Z,31.70
2017-09-24T06:58:06.283Z,34.30
2017-09-24T07:00:33.988Z,35.47
2017-09-24T07:03:01.573Z,32.87
2017-09-24T07:05:29.171Z,37.60
2017-09-24T07:07:57.520Z,37.30
2017-09-24T07:10:25.150Z,36.37
2017-09-24T07:12:52.730Z,37.10
2017-09-24T07:15:20.337Z,36.30
2017-09-24T07:17:48.687Z,39.03
2017-09-24T07:20:16.283Z,38.67
2017-09-24T07:22:44.690Z,35.83
2017-09-24T07:25:12.287Z,37.13
2017-09-24T07:27:39.848Z,46.13
2017-09-24T07:30:07.456Z,49.80
2017-09-24T07:32:35.843Z,54.13
2017-09-24T07:35:04.390Z,43.27
2017-09-24T07:37:32.001Z,45.53
2017-09-24T07:40:00.415Z,48.90
2017-09-24T07:42:28.004Z,48.80
2017-09-24T07:44:56.125Z,49.77
2017-09-24T07:47:24.514Z,48.43
2017-09-24T07:49:52.133Z,57.27
2017-09-24T07:52:19.719Z,61.73
2017-09-24T07:54:48.174Z,55.63
2017-09-24T07:57:16.489Z,52.40
2017-09-24T07:59:44.995Z,59.40
2017-09-24T08:02:12.599Z,59.93
2017-09-24T08:04:40.203Z,62.30
2017-09-24T08:07:07.832Z,59.13
2017-09-24T08:09:36.220Z,57.07
2017-09-24T08:12:03.863Z,57.30
2017-09-24T08:14:31.476Z,68.80
2017-09-24T08:16:59.036Z,70.40
2017-09-24T08:19:26.630Z,65.70
2017-09-24T08:21:55.037Z,71.03
2017-09-24T08:24:22.614Z,63.40
2017-09-24T08:26:50.230Z,66.83
2017-09-24T08:29:18.752Z,58.63
2017-09-24T08:31:46.347Z,60.90
2017-09-24T08:34:13.937Z,54.90
2017-09-24T08:36:42.290Z,56.97
2017-09-24T08:39:09.890Z,61.33
2017-09-24T08:41:38.260Z,61.70
2017-09-24T08:44:05.876Z,57.93
2017-09-24T08:46:33.463Z,60.50
2017-09-24T08:49:01.065Z,61.93
2017-09-24T08:51:29.439Z,58.70
2017-09-24T08:53:57.814Z,51.83
2017-09-24T08:56:25.392Z,51.10
2017-09-24T08:58:53.735Z,53.57
2017-09-24T09:01:21.333Z,54.33
2017-09-24T09:03:49.719Z,55.10
2017-09-24T09:06:18.099Z,55.50
2017-09-24T09:08:46.505Z,59.00
2017-09-24T09:11:14.147Z,56.57
2017-09-24T09:13:42.507Z,54.63
2017-09-24T09:16:10.098Z,53.23
2017-09-24T09:18:38.516Z,50.40
2017-09-24T09:21:06.094Z,58.40
2017-09-24T09:23:33.957Z,57.10
2017-09-24T09:26:01.926Z,54.00
2017-09-24T09:28:29.799Z,54.37
2017-09-24T09:30:57.597Z,55.57
2017-09-24T09:33:25.539Z,50.17
2017-09-24T09:35:53.179Z,47.73
2017-09-24T09:38:20.789Z,52.27
2017-09-24T09:40:48.394Z,56.63
2017-09-24T09:46:39.396Z,57.67
2017-09-24T09:49:07.788Z,57.50
2017-09-24T09:51:36.128Z,60.30
2017-09-24T09:54:03.717Z,54.50
2017-09-24T09:56:31.842Z,52.67
2017-09-24T09:58:59.489Z,58.67
2017-09-24T10:01:27.063Z,57.90
2017-09-24T10:03:54.632Z,56.20
2017-09-24T10:06:34.072Z,58.27
2017-09-24T10:09:13.424Z,56.77
2017-09-24T10:11:41.022Z,62.20
2017-09-24T10:14:10.366Z,61.57
2017-09-24T10:16:38.021Z,52.57
2017-09-24T10:19:05.600Z,60.80
2017-09-24T10:21:33.208Z,54.67
2017-09-24T10:24:00.786Z,46.97
2017-09-24T10:26:29.154Z,61.07
2017-09-24T10:29:08.664Z,50.50
2017-09-24T10:31:48.122Z,44.37
2017-09-24T10:34:15.721Z,53.87
2017-09-24T10:36:43.334Z,48.70
2017-09-24T10:39:11.578Z,38.97
2017-09-24T10:41:42.726Z,43.37
2017-09-24T10:44:10.320Z,32.17
2017-09-24T10:46:39.627Z,39.07
2017-09-24T10:49:07.473Z,38.13
2017-09-24T10:51:36.291Z,42.47
2017-09-24T10:54:04.531Z,40.80
2017-09-24T10:56:32.224Z,42.53
2017-09-24T10:59:00.160Z,36.90
2017-09-24T11:01:27.745Z,34.70
2017-09-24T11:03:55.361Z,33.40
2017-09-24T11:06:22.979Z,35.30
2017-09-24T11:08:51.176Z,32.57
2017-09-24T11:11:18.762Z,28.77
2017-09-24T11:13:46.339Z,30.37
2017-09-24T11:16:14.719Z,45.13
2017-09-24T11:18:43.090Z,29.67
2017-09-24T11:21:10.674Z,36.83
2017-09-24T11:23:39.057Z,35.10
2017-09-24T11:26:06.677Z,38.37
2017-09-24T11:28:34.291Z,38.23
2017-09-24T11:31:02.683Z,23.97
2017-09-24T11:33:30.289Z,30.23
2017-09-24T11:35:57.898Z,25.20
2017-09-24T11:38:26.221Z,24.77
2017-09-24T11:40:53.815Z,33.23
2017-09-24T11:43:21.408Z,24.60
2017-09-24T11:45:49.853Z,29.27
2017-09-24T11:48:19.236Z,26.97
2017-09-24T11:50:46.835Z,21.30
2017-09-24T11:53:14.415Z,23.93
2017-09-24T11:55:42.010Z,31.03
2017-09-24T11:58:10.273Z,23.77
2017-09-24T12:00:38.674Z,25.37
2017-09-24T12:03:06.290Z,23.57
2017-09-24T12:05:33.880Z,26.13
2017-09-24T12:08:02.935Z,30.00
2017-09-24T12:10:30.689Z,26.13
2017-09-24T12:12:58.290Z,18.27
2017-09-24T12:15:26.620Z,24.30
2017-09-24T12:17:54.214Z,21.70
2017-09-24T12:20:21.792Z,23.57
2017-09-24T12:22:50.193Z,26.10
2017-09-24T12:25:17.787Z,32.30
2017-09-24T12:27:45.354Z,10.70
2017-09-24T12:30:12.937Z,24.23
2017-09-24T12:32:42.033Z,27.37
2017-09-24T12:35:09.802Z,28.87
2017-09-24T12:37:37.391Z,21.37
2017-09-24T12:40:04.963Z,26.90
2017-09-24T12:42:32.614Z,34.17
2017-09-24T12:45:00.373Z,29.83
2017-09-24T12:47:27.971Z,35.57
2017-09-24T12:49:55.568Z,36.40
2017-09-24T12:52:23.201Z,32.40
2017-09-24T12:54:50.811Z,35.77
2017-09-24T12:57:18.410Z,12.53
2017-09-24T12:59:45.979Z,25.37
2017-09-24T13:02:14.510Z,24.23
2017-09-24T13:04:42.238Z,20.20
2017-09-24T13:07:09.841Z,24.87
2017-09-24T13:09:38.198Z,22.60
2017-09-24T13:12:05.797Z,18.60
2017-09-24T13:14:33.514Z,29.83
2017-09-24T13:17:01.162Z,34.40
2017-09-24T13:19:28.757Z,19.87
2017-09-24T13:21:56.311Z,10.20
2017-09-24T13:24:23.958Z,22.43
2017-09-24T13:26:51.520Z,27.23
2017-09-24T13:29:19.120Z,16.67
2017-09-24T13:31:46.699Z,23.33
2017-09-24T13:34:14.391Z,15.00
2017-09-24T13:36:41.965Z,22.70
2017-09-24T13:39:09.564Z,19.20
2017-09-24T13:41:37.129Z,20.27
2017-09-24T13:44:04.782Z,24.20
2017-09-24T13:46:32.359Z,21.33
2017-09-24T13:49:00.049Z,23.97
2017-09-24T13:51:28.398Z,23.20
2017-09-24T13:53:56.161Z,19.97
2017-09-24T13:56:23.753Z,15.67
2017-09-24T13:58:51.363Z,19.47
2017-09-24T14:01:18.955Z,21.10
2017-09-24T14:03:46.641Z,19.90
2017-09-24T14:06:14.250Z,16.13
2017-09-24T14:08:41.817Z,14.23
2017-09-24T14:11:10.371Z,23.23
2017-09-24T14:13:38.782Z,14.37
2017-09-24T14:16:06.417Z,17.67
2017-09-24T14:18:34.767Z,21.63
2017-09-24T14:21:02.384Z,8.30
2017-09-24T14:23:30.712Z,15.90
2017-09-24T14:25:58.432Z,20.70
2017-09-24T14:28:26.839Z,16.37
2017-09-24T14:30:54.427Z,13.93
2017-09-24T14:33:22.053Z,14.97
2017-09-24T14:35:49.646Z,17.10
2017-09-24T14:38:17.237Z,23.17
2017-09-24T14:40:45.623Z,20.67
2017-09-24T14:43:13.199Z,16.67
2017-09-24T14:45:41.578Z,22.13
2017-09-24T14:48:09.284Z,20.90
2017-09-24T14:50:36.933Z,20.40
2017-09-24T14:53:06.166Z,22.57
2017-09-24T14:55:33.766Z,20.20
2017-09-24T14:58:01.355Z,24.27
2017-09-24T15:00:29.696Z,25.40
2017-09-24T15:02:57.374Z,18.33
2017-09-24T15:05:24.952Z,18.93
2017-09-24T15:07:52.545Z,18.40
2017-09-24T15:10:20.241Z,15.27
2017-09-24T15:12:47.853Z,16.63
2017-09-24T15:15:15.544Z,18.97
2017-09-24T15:17:43.143Z,25.03
2017-09-24T15:20:10.830Z,18.17
2017-09-24T15:22:38.482Z,18.03
2017-09-24T15:25:06.099Z,15.87
2017-09-24T15:27:34.483Z,16.00
2017-09-24T15:30:02.832Z,19.40
2017-09-24T15:32:30.479Z,15.63
2017-09-24T15:34:58.157Z,15.20
2017-09-24T15:37:25.769Z,13.77
2017-09-24T15:39:53.352Z,13.00
2017-09-24T15:42:21.020Z,13.00
2017-09-24T15:44:48.614Z,13.67
2017-09-24T15:47:16.216Z,12.23
2017-09-24T15:49:44.609Z,10.53
2017-09-24T15:52:13.123Z,10.37
2017-09-24T15:54:40.790Z,10.07
2017-09-24T15:57:08.501Z,9.50
2017-09-24T15:59:36.905Z,12.47
2017-09-24T16:02:04.518Z,9.47
2017-09-24T16:04:32.148Z,9.80
2017-09-24T16:06:59.787Z,8.00
2017-09-24T16:09:28.137Z,9.43
2017-09-24T16:11:55.788Z,6.43
2017-09-24T16:14:23.385Z,9.20
2017-09-24T16:16:51.270Z,9.50
2017-09-24T16:19:19.723Z,11.23
2017-09-24T16:21:47.461Z,9.27
2017-09-24T16:24:15.059Z,8.03
2017-09-24T16:26:42.752Z,16.03
2017-09-24T16:29:11.136Z,7.40
2017-09-24T16:31:39.476Z,7.80
2017-09-24T16:34:07.075Z,7.17
2017-09-24T16:36:35.427Z,8.57
2017-09-24T16:39:03.054Z,10.80
2017-09-24T16:41:32.006Z,7.57
2017-09-24T16:43:59.609Z,7.83
2017-09-24T16:46:27.287Z,6.10
2017-09-24T16:48:54.856Z,4.73
2017-09-24T16:51:22.464Z,7.80
2017-09-24T16:53:50.222Z,7.07
2017-09-24T16:56:18.622Z,8.13
2017-09-24T16:58:46.298Z,8.73
2017-09-24T17:01:14.007Z,5.77
2017-09-24T17:03:43.283Z,5.00
2017-09-24T17:06:10.870Z,7.30
2017-09-24T17:08:38.453Z,5.27
2017-09-24T17:11:06.033Z,5.00
2017-09-24T17:13:33.782Z,7.03
2017-09-24T17:16:01.455Z,4.97
2017-09-24T17:18:29.038Z,6.90
2017-09-24T17:20:56.666Z,8.07
2017-09-24T17:23:24.277Z,10.70
2017-09-24T17:25:55.074Z,9.30
2017-09-24T17:28:22.800Z,7.67
2017-09-24T17:30:51.143Z,6.53
2017-09-24T17:33:18.717Z,8.07
2017-09-24T17:35:47.277Z,8.57
2017-09-24T17:38:14.884Z,6.00
2017-09-24T17:40:43.231Z,7.20
2017-09-24T17:43:10.980Z,6.80
2017-09-24T17:45:38.611Z,6.77
2017-09-24T17:48:06.958Z,8.50
2017-09-24T17:50:34.533Z,7.07
2017-09-24T17:53:02.173Z,8.10
2017-09-24T17:55:29.788Z,8.27
2017-09-24T17:57:58.148Z,7.73
2017-09-24T18:00:25.710Z,9.13
2017-09-24T18:02:53.333Z,7.47
2017-09-24T18:05:20.901Z,11.77
2017-09-24T18:07:48.506Z,8.70
2017-09-24T18:10:16.107Z,8.57
2017-09-24T18:12:43.752Z,9.00
2017-09-24T18:15:12.105Z,7.33
2017-09-24T18:17:41.226Z,9.43
2017-09-24T18:20:09.605Z,6.40
2017-09-24T18:22:37.976Z,7.70
2017-09-24T18:25:06.358Z,9.83
2017-09-24T18:27:33.919Z,8.03
2017-09-24T18:30:01.497Z,8.97
2017-09-24T18:32:29.215Z,12.70
2017-09-24T18:34:56.882Z,11.07
2017-09-24T18:37:24.537Z,10.30
2017-09-24T18:39:52.141Z,8.10
2017-09-24T18:42:19.834Z,9.50
2017-09-24T18:44:48.179Z,12.37
2017-09-24T18:47:15.750Z,9.17
2017-09-24T18:49:43.360Z,11.83
2017-09-24T18:52:11.717Z,11.90
2017-09-24T18:54:39.323Z,10.47
2017-09-24T18:57:07.686Z,13.30
2017-09-24T18:59:36.063Z,10.53
2017-09-24T19:02:04.436Z,10.80
2017-09-24T19:04:32.869Z,11.10
2017-09-24T19:07:00.463Z,9.60
2017-09-24T19:09:28.057Z,11.03
2017-09-24T19:11:56.440Z,10.73
2017-09-24T19:14:24.013Z,14.07
2017-09-24T19:16:51.573Z,11.57
2017-09-24T19:19:19.948Z,11.13
2017-09-24T19:21:48.317Z,13.93
2017-09-24T19:24:16.720Z,10.23
2017-09-24T19:26:45.085Z,10.67
2017-09-24T19:29:13.438Z,12.30
2017-09-24T19:31:41.047Z,9.93
2017-09-24T19:34:08.617Z,17.53
2017-09-24T19:36:36.312Z,11.17
2017-09-24T19:39:03.906Z,14.53
2017-09-24T19:41:31.556Z,10.00
2017-09-24T19:43:59.219Z,10.40
2017-09-24T19:46:26.803Z,11.40
2017-09-24T19:48:54.418Z,11.77
2017-09-24T19:51:22.100Z,11.57
2017-09-24T19:53:49.713Z,13.03
2017-09-24T19:56:17.299Z,9.17
2017-09-24T19:58:45.644Z,11.93
2017-09-24T20:01:14.753Z,13.27
2017-09-24T20:03:42.330Z,12.10
2017-09-24T20:06:10.700Z,14.30
2017-09-24T20:08:38.413Z,14.67
2017-09-24T20:11:06.267Z,11.67
2017-09-24T20:13:33.877Z,16.23
2017-09-24T20:16:01.452Z,13.17
2017-09-24T20:18:29.043Z,12.20
2017-09-24T20:20:57.377Z,11.03
2017-09-24T20:23:25.035Z,14.90
2017-09-24T20:25:52.648Z,13.93
2017-09-24T20:28:20.224Z,16.10
2017-09-24T20:30:48.590Z,13.50
2017-09-24T20:33:17.683Z,10.87
2017-09-24T20:35:45.448Z,12.80
2017-09-24T20:38:13.039Z,13.57
2017-09-24T20:40:41.358Z,13.47
2017-09-24T20:43:09.002Z,13.87
2017-09-24T20:45:36.577Z,13.73
2017-09-24T20:48:04.137Z,12.13
2017-09-24T20:50:31.732Z,11.93
2017-09-24T20:52:59.304Z,14.40
2017-09-24T20:55:27.047Z,14.00
2017-09-24T20:57:54.716Z,14.50
2017-09-24T21:00:22.305Z,16.73
2017-09-24T21:02:49.895Z,14.33
2017-09-24T21:05:18.253Z,11.20
2017-09-24T21:07:45.889Z,11.40
2017-09-24T21:10:13.466Z,12.37
2017-09-24T21:12:41.031Z,13.60
2017-09-24T21:15:08.646Z,12.70
2017-09-24T21:17:37.029Z,13.60
2017-09-24T21:20:05.422Z,14.43
2017-09-24T21:22:33.005Z,14.33
2017-09-24T21:25:00.560Z,18.40
2017-09-24T21:27:28.179Z,13.57
2017-09-24T21:29:55.775Z,13.07
2017-09-24T21:32:24.169Z,11.07
2017-09-24T21:34:51.753Z,13.90
2017-09-24T21:37:19.324Z,14.63
2017-09-24T21:39:46.983Z,14.57
2017-09-24T21:42:15.353Z,13.47
2017-09-24T21:44:42.937Z,15.93
2017-09-24T21:47:10.515Z,14.30
2017-09-24T21:49:38.099Z,13.40
2017-09-24T21:52:06.484Z,14.40
2017-09-24T21:54:34.078Z,13.33
2017-09-24T21:57:01.672Z,16.20
2017-09-24T21:59:29.333Z,14.47
2017-09-24T22:01:56.921Z,13.90
2017-09-24T22:04:24.529Z,15.03
2017-09-24T22:06:52.886Z,12.97
2017-09-24T22:09:20.493Z,24.93
2017-09-24T22:11:48.091Z,16.17
2017-09-24T22:14:15.680Z,14.90
2017-09-24T22:16:43.264Z,17.73
2017-09-24T22:19:12.284Z,16.47
2017-09-24T22:21:39.965Z,22.20
2017-09-24T22:24:07.570Z,24.97
2017-09-24T22:26:35.174Z,26.17
2017-09-24T22:29:03.511Z,20.20
2017-09-24T22:31:31.095Z,22.27
2017-09-24T22:33:59.507Z,20.47
2017-09-24T22:36:27.093Z,21.13
2017-09-24T22:38:54.687Z,18.53
2017-09-24T22:41:22.252Z,20.43
2017-09-24T22:43:50.188Z,22.57
2017-09-24T22:46:17.767Z,24.60
2017-09-24T22:48:45.348Z,22.00
2017-09-24T22:51:13.698Z,28.97
2017-09-24T22:53:41.288Z,21.73
2017-09-24T22:56:08.913Z,25.83
2017-09-24T22:58:36.490Z,19.87
2017-09-24T23:01:04.071Z,22.67
2017-09-24T23:03:31.793Z,22.40
2017-09-24T23:05:59.513Z,22.67
2017-09-24T23:08:27.111Z,21.67
2017-09-24T23:10:55.451Z,23.60
2017-09-24T23:13:24.004Z,23.90
2017-09-24T23:15:51.682Z,20.90
2017-09-24T23:18:20.115Z,20.80
2017-09-24T23:20:47.736Z,19.47
2017-09-24T23:23:15.311Z,19.20
2017-09-24T23:25:42.917Z,20.73
2017-09-24T23:28:11.349Z,22.10
2017-09-24T23:30:38.973Z,17.70
2017-09-24T23:33:07.301Z,22.10
2017-09-24T23:35:34.873Z,21.07
2017-09-24T23:38:02.467Z,17.33
2017-09-24T23:40:30.061Z,18.83
2017-09-24T23:42:57.663Z,17.90
2017-09-24T23:45:25.258Z,16.83
2017-09-24T23:47:52.863Z,26.30
2017-09-24T23:50:20.432Z,20.27
2017-09-24T23:52:48.041Z,19.70
2017-09-24T23:55:15.628Z,18.83
2017-09-24T23:57:44.007Z,20.77
